sensor_id;sensor_type;location;lat;lon;timestamp;P1;durP1;ratioP1;P2;durP2;ratioP2
27489;SDS011;14925;51.026;13.752;2023-08-01T00:02:16;8.98;;;3.92;;
27489;SDS011;14925;51.026;13.752;2023-08-01T00:04:41;7.18;;;3.70;;
27489;SDS011;14925;51.026;13.752;2023-08-01T00:07:07;8.73;;;3.58;;
27489;SDS011;14925;51.026;13.752;2023-08-01T00:09:32;6.25;;;3.40;;
27489;SDS011;14925;51.026;13.752;2023-08-01T00:11:57;8.40;;;3.67;;
27489;SDS011;14925;51.026;13.752;2023-08-01T00:14:23;7.65;;;3.55;;
27489;SDS011;14925;51.026;13.752;2023-08-01T00:16:51;5.82;;;3.20;;
27489;SDS011;14925;51.026;13.752;2023-08-01T00:19:17;8.43;;;3.47;;
27489;SDS011;14925;51.026;13.752;2023-08-01T00:21:43;7.35;;;3.90;;
27489;SDS011;14925;51.026;13.752;2023-08-01T00:24:08;8.40;;;3.60;;
27489;SDS011;14925;51.026;13.752;2023-08-01T00:26:34;8.90;;;3.95;;
27489;SDS011;14925;51.026;13.752;2023-08-01T00:28:59;6.10;;;3.63;;
27489;SDS011;14925;51.026;13.752;2023-08-01T00:31:28;7.82;;;3.50;;
27489;SDS011;14925;51.026;13.752;2023-08-01T00:33:53;5.00;;;3.30;;
27489;SDS011;14925;51.026;13.752;2023-08-01T00:36:18;9.48;;;3.90;;
27489;SDS011;14925;51.026;13.752;2023-08-01T00:38:44;6.20;;;3.70;;
27489;SDS011;14925;51.026;13.752;2023-08-01T00:41:09;6.82;;;3.75;;
27489;SDS011;14925;51.026;13.752;2023-08-01T00:43:35;7.72;;;3.67;;
27489;SDS011;14925;51.026;13.752;2023-08-01T00:46:01;6.28;;;3.90;;
27489;SDS011;14925;51.026;13.752;2023-08-01T00:48:29;7.70;;;3.50;;
27489;SDS011;14925;51.026;13.752;2023-08-01T00:50:54;6.95;;;3.75;;
27489;SDS011;14925;51.026;13.752;2023-08-01T00:53:21;7.43;;;3.58;;
27489;SDS011;14925;51.026;13.752;2023-08-01T00:55:47;5.68;;;3.55;;
27489;SDS011;14925;51.026;13.752;2023-08-01T00:58:13;6.30;;;3.55;;
27489;SDS011;14925;51.026;13.752;2023-08-01T01:00:41;5.63;;;3.10;;
27489;SDS011;14925;51.026;13.752;2023-08-01T01:03:06;7.22;;;3.45;;
27489;SDS011;14925;51.026;13.752;2023-08-01T01:05:34;7.63;;;3.50;;
27489;SDS011;14925;51.026;13.752;2023-08-01T01:08:01;6.80;;;3.50;;
27489;SDS011;14925;51.026;13.752;2023-08-01T01:10:28;6.25;;;3.47;;
27489;SDS011;14925;51.026;13.752;2023-08-01T01:12:53;6.53;;;3.33;;
27489;SDS011;14925;51.026;13.752;2023-08-01T01:15:20;7.07;;;3.60;;
27489;SDS011;14925;51.026;13.752;2023-08-01T01:17:48;5.90;;;3.38;;
27489;SDS011;14925;51.026;13.752;2023-08-01T01:20:13;6.40;;;3.72;;
27489;SDS011;14925;51.026;13.752;2023-08-01T01:22:39;4.57;;;3.08;;
27489;SDS011;14925;51.026;13.752;2023-08-01T01:25:06;7.15;;;3.13;;
27489;SDS011;14925;51.026;13.752;2023-08-01T01:27:32;5.72;;;3.40;;
27489;SDS011;14925;51.026;13.752;2023-08-01T01:30:01;6.20;;;3.70;;
27489;SDS011;14925;51.026;13.752;2023-08-01T01:32:28;8.30;;;3.33;;
27489;SDS011;14925;51.026;13.752;2023-08-01T01:34:54;6.00;;;3.70;;
27489;SDS011;14925;51.026;13.752;2023-08-01T01:37:19;7.22;;;3.22;;
27489;SDS011;14925;51.026;13.752;2023-08-01T01:39:45;6.75;;;3.72;;
27489;SDS011;14925;51.026;13.752;2023-08-01T01:42:10;7.63;;;4.00;;
27489;SDS011;14925;51.026;13.752;2023-08-01T01:44:38;5.05;;;3.50;;
27489;SDS011;14925;51.026;13.752;2023-08-01T01:47:03;5.80;;;3.90;;
27489;SDS011;14925;51.026;13.752;2023-08-01T01:49:29;6.72;;;3.53;;
27489;SDS011;14925;51.026;13.752;2023-08-01T01:51:54;7.25;;;4.20;;
27489;SDS011;14925;51.026;13.752;2023-08-01T01:54:20;5.90;;;3.60;;
27489;SDS011;14925;51.026;13.752;2023-08-01T01:56:45;5.75;;;3.65;;
27489;SDS011;14925;51.026;13.752;2023-08-01T01:59:10;8.23;;;3.60;;
27489;SDS011;14925;51.026;13.752;2023-08-01T02:01:36;6.95;;;3.63;;
27489;SDS011;14925;51.026;13.752;2023-08-01T02:04:01;5.63;;;3.53;;
27489;SDS011;14925;51.026;13.752;2023-08-01T02:06:27;5.35;;;3.42;;
27489;SDS011;14925;51.026;13.752;2023-08-01T02:08:52;6.85;;;3.65;;
27489;SDS011;14925;51.026;13.752;2023-08-01T02:11:18;7.45;;;3.58;;
27489;SDS011;14925;51.026;13.752;2023-08-01T02:13:43;5.53;;;3.50;;
27489;SDS011;14925;51.026;13.752;2023-08-01T02:16:09;5.88;;;3.70;;
27489;SDS011;14925;51.026;13.752;2023-08-01T02:18:34;6.47;;;3.90;;
27489;SDS011;14925;51.026;13.752;2023-08-01T02:20:59;8.32;;;3.78;;
27489;SDS011;14925;51.026;13.752;2023-08-01T02:23:25;5.43;;;3.95;;
27489;SDS011;14925;51.026;13.752;2023-08-01T02:25:51;7.93;;;4.03;;
27489;SDS011;14925;51.026;13.752;2023-08-01T02:28:16;5.95;;;3.90;;
27489;SDS011;14925;51.026;13.752;2023-08-01T02:30:41;6.20;;;3.72;;
27489;SDS011;14925;51.026;13.752;2023-08-01T02:33:07;6.05;;;4.03;;
27489;SDS011;14925;51.026;13.752;2023-08-01T02:35:32;6.47;;;4.22;;
27489;SDS011;14925;51.026;13.752;2023-08-01T02:37:58;5.20;;;3.85;;
27489;SDS011;14925;51.026;13.752;2023-08-01T02:40:23;6.93;;;4.30;;
27489;SDS011;14925;51.026;13.752;2023-08-01T02:42:49;7.80;;;4.85;;
27489;SDS011;14925;51.026;13.752;2023-08-01T02:45:14;6.30;;;4.28;;
27489;SDS011;14925;51.026;13.752;2023-08-01T02:47:39;7.53;;;4.07;;
27489;SDS011;14925;51.026;13.752;2023-08-01T02:50:05;9.27;;;4.70;;
27489;SDS011;14925;51.026;13.752;2023-08-01T02:52:31;6.78;;;4.22;;
27489;SDS011;14925;51.026;13.752;2023-08-01T02:54:56;6.50;;;4.25;;
27489;SDS011;14925;51.026;13.752;2023-08-01T02:57:22;6.85;;;4.40;;
27489;SDS011;14925;51.026;13.752;2023-08-01T02:59:47;6.13;;;4.18;;
27489;SDS011;14925;51.026;13.752;2023-08-01T03:02:12;9.02;;;4.55;;
27489;SDS011;14925;51.026;13.752;2023-08-01T03:04:38;7.30;;;5.20;;
27489;SDS011;14925;51.026;13.752;2023-08-01T03:07:06;8.82;;;4.35;;
27489;SDS011;14925;51.026;13.752;2023-08-01T03:09:34;8.32;;;4.53;;
27489;SDS011;14925;51.026;13.752;2023-08-01T03:12:00;8.73;;;4.47;;
27489;SDS011;14925;51.026;13.752;2023-08-01T03:14:25;8.52;;;4.75;;
27489;SDS011;14925;51.026;13.752;2023-08-01T03:16:50;6.55;;;4.53;;
27489;SDS011;14925;51.026;13.752;2023-08-01T03:19:16;7.07;;;4.38;;
27489;SDS011;14925;51.026;13.752;2023-08-01T03:21:41;8.27;;;4.72;;
27489;SDS011;14925;51.026;13.752;2023-08-01T03:24:07;9.20;;;4.75;;
27489;SDS011;14925;51.026;13.752;2023-08-01T03:26:34;7.82;;;4.32;;
27489;SDS011;14925;51.026;13.752;2023-08-01T03:28:59;5.97;;;4.32;;
27489;SDS011;14925;51.026;13.752;2023-08-01T03:31:25;8.98;;;4.30;;
27489;SDS011;14925;51.026;13.752;2023-08-01T03:33:50;7.97;;;4.07;;
27489;SDS011;14925;51.026;13.752;2023-08-01T03:36:16;6.13;;;3.92;;
27489;SDS011;14925;51.026;13.752;2023-08-01T03:38:41;8.30;;;4.57;;
27489;SDS011;14925;51.026;13.752;2023-08-01T03:41:06;7.20;;;3.60;;
27489;SDS011;14925;51.026;13.752;2023-08-01T03:43:35;7.82;;;3.63;;
27489;SDS011;14925;51.026;13.752;2023-08-01T03:46:00;7.45;;;3.70;;
27489;SDS011;14925;51.026;13.752;2023-08-01T03:48:26;7.72;;;3.97;;
27489;SDS011;14925;51.026;13.752;2023-08-01T03:50:51;7.43;;;3.95;;
27489;SDS011;14925;51.026;13.752;2023-08-01T03:53:17;9.23;;;3.83;;
27489;SDS011;14925;51.026;13.752;2023-08-01T03:55:43;8.50;;;4.05;;
27489;SDS011;14925;51.026;13.752;2023-08-01T03:58:09;6.68;;;3.83;;
27489;SDS011;14925;51.026;13.752;2023-08-01T04:00:34;6.57;;;3.67;;
27489;SDS011;14925;51.026;13.752;2023-08-01T04:03:00;6.70;;;4.13;;
27489;SDS011;14925;51.026;13.752;2023-08-01T04:05:26;6.45;;;4.55;;
27489;SDS011;14925;51.026;13.752;2023-08-01T04:07:52;8.45;;;4.53;;
27489;SDS011;14925;51.026;13.752;2023-08-01T04:10:19;9.82;;;4.85;;
27489;SDS011;14925;51.026;13.752;2023-08-01T04:12:48;7.25;;;4.80;;
27489;SDS011;14925;51.026;13.752;2023-08-01T04:15:13;8.00;;;4.55;;
27489;SDS011;14925;51.026;13.752;2023-08-01T04:17:39;6.82;;;4.80;;
27489;SDS011;14925;51.026;13.752;2023-08-01T04:20:04;7.13;;;5.20;;
27489;SDS011;14925;51.026;13.752;2023-08-01T04:22:30;13.77;;;5.60;;
27489;SDS011;14925;51.026;13.752;2023-08-01T04:24:55;9.68;;;5.30;;
27489;SDS011;14925;51.026;13.752;2023-08-01T04:27:21;9.73;;;5.55;;
27489;SDS011;14925;51.026;13.752;2023-08-01T04:29:48;8.93;;;5.82;;
27489;SDS011;14925;51.026;13.752;2023-08-01T04:32:13;10.85;;;6.40;;
27489;SDS011;14925;51.026;13.752;2023-08-01T04:34:40;9.05;;;6.15;;
27489;SDS011;14925;51.026;13.752;2023-08-01T04:37:05;11.63;;;6.38;;
27489;SDS011;14925;51.026;13.752;2023-08-01T04:39:31;11.00;;;6.00;;
27489;SDS011;14925;51.026;13.752;2023-08-01T04:41:56;9.57;;;6.80;;
27489;SDS011;14925;51.026;13.752;2023-08-01T04:44:21;9.82;;;7.20;;
27489;SDS011;14925;51.026;13.752;2023-08-01T04:46:47;9.77;;;7.38;;
27489;SDS011;14925;51.026;13.752;2023-08-01T04:49:13;10.23;;;7.40;;
27489;SDS011;14925;51.026;13.752;2023-08-01T04:51:38;11.60;;;7.28;;
27489;SDS011;14925;51.026;13.752;2023-08-01T04:54:04;9.95;;;7.10;;
27489;SDS011;14925;51.026;13.752;2023-08-01T04:56:29;11.07;;;7.65;;
27489;SDS011;14925;51.026;13.752;2023-08-01T04:58:54;10.05;;;7.30;;
27489;SDS011;14925;51.026;13.752;2023-08-01T05:01:20;13.82;;;8.32;;
27489;SDS011;14925;51.026;13.752;2023-08-01T05:03:45;10.77;;;7.93;;
27489;SDS011;14925;51.026;13.752;2023-08-01T05:06:14;12.02;;;7.97;;
27489;SDS011;14925;51.026;13.752;2023-08-01T05:08:39;9.65;;;7.22;;
27489;SDS011;14925;51.026;13.752;2023-08-01T05:11:07;12.57;;;7.88;;
27489;SDS011;14925;51.026;13.752;2023-08-01T05:13:33;10.18;;;8.00;;
27489;SDS011;14925;51.026;13.752;2023-08-01T05:15:58;10.93;;;8.00;;
27489;SDS011;14925;51.026;13.752;2023-08-01T05:18:23;10.07;;;7.63;;
27489;SDS011;14925;51.026;13.752;2023-08-01T05:20:49;11.18;;;7.88;;
27489;SDS011;14925;51.026;13.752;2023-08-01T05:23:14;11.35;;;7.85;;
27489;SDS011;14925;51.026;13.752;2023-08-01T05:25:39;11.57;;;7.65;;
27489;SDS011;14925;51.026;13.752;2023-08-01T05:28:05;9.60;;;7.32;;
27489;SDS011;14925;51.026;13.752;2023-08-01T05:30:30;9.57;;;7.85;;
27489;SDS011;14925;51.026;13.752;2023-08-01T05:32:55;8.45;;;7.60;;
27489;SDS011;14925;51.026;13.752;2023-08-01T05:35:21;7.03;;;6.32;;
27489;SDS011;14925;51.026;13.752;2023-08-01T05:37:46;10.70;;;7.25;;
27489;SDS011;14925;51.026;13.752;2023-08-01T05:40:12;12.18;;;7.53;;
27489;SDS011;14925;51.026;13.752;2023-08-01T05:42:40;10.30;;;7.93;;
27489;SDS011;14925;51.026;13.752;2023-08-01T05:45:08;10.10;;;6.65;;
27489;SDS011;14925;51.026;13.752;2023-08-01T05:47:36;6.72;;;6.03;;
27489;SDS011;14925;51.026;13.752;2023-08-01T05:50:02;9.25;;;5.63;;
27489;SDS011;14925;51.026;13.752;2023-08-01T05:52:29;6.93;;;5.10;;
27489;SDS011;14925;51.026;13.752;2023-08-01T05:54:55;6.30;;;5.13;;
27489;SDS011;14925;51.026;13.752;2023-08-01T05:57:20;8.05;;;4.90;;
27489;SDS011;14925;51.026;13.752;2023-08-01T05:59:45;7.75;;;5.15;;
27489;SDS011;14925;51.026;13.752;2023-08-01T06:02:11;8.57;;;5.10;;
27489;SDS011;14925;51.026;13.752;2023-08-01T06:04:36;6.70;;;4.50;;
27489;SDS011;14925;51.026;13.752;2023-08-01T06:07:03;5.53;;;4.50;;
27489;SDS011;14925;51.026;13.752;2023-08-01T06:09:29;7.60;;;3.30;;
27489;SDS011;14925;51.026;13.752;2023-08-01T06:11:55;4.75;;;3.35;;
27489;SDS011;14925;51.026;13.752;2023-08-01T06:14:20;5.60;;;3.70;;
27489;SDS011;14925;51.026;13.752;2023-08-01T06:16:45;5.07;;;3.33;;
27489;SDS011;14925;51.026;13.752;2023-08-01T06:19:11;3.58;;;3.13;;
27489;SDS011;14925;51.026;13.752;2023-08-01T06:21:36;2.55;;;1.13;;
27489;SDS011;14925;51.026;13.752;2023-08-01T06:24:07;3.17;;;1.30;;
27489;SDS011;14925;51.026;13.752;2023-08-01T06:26:33;1.33;;;1.15;;
27489;SDS011;14925;51.026;13.752;2023-08-01T06:28:59;1.85;;;1.40;;
27489;SDS011;14925;51.026;13.752;2023-08-01T06:31:27;1.95;;;1.33;;
27489;SDS011;14925;51.026;13.752;2023-08-01T06:33:52;1.20;;;1.02;;
27489;SDS011;14925;51.026;13.752;2023-08-01T06:36:18;1.10;;;1.00;;
27489;SDS011;14925;51.026;13.752;2023-08-01T06:38:43;1.38;;;0.90;;
27489;SDS011;14925;51.026;13.752;2023-08-01T06:41:09;1.20;;;1.10;;
27489;SDS011;14925;51.026;13.752;2023-08-01T06:43:34;1.30;;;0.98;;
27489;SDS011;14925;51.026;13.752;2023-08-01T06:46:03;2.08;;;1.10;;
27489;SDS011;14925;51.026;13.752;2023-08-01T06:48:28;1.10;;;1.00;;
27489;SDS011;14925;51.026;13.752;2023-08-01T06:50:59;1.20;;;1.08;;
27489;SDS011;14925;51.026;13.752;2023-08-01T06:53:25;2.13;;;1.30;;
27489;SDS011;14925;51.026;13.752;2023-08-01T06:55:51;1.38;;;1.20;;
27489;SDS011;14925;51.026;13.752;2023-08-01T06:58:17;2.45;;;1.30;;
27489;SDS011;14925;51.026;13.752;2023-08-01T07:00:45;4.35;;;3.40;;
27489;SDS011;14925;51.026;13.752;2023-08-01T07:03:13;4.88;;;3.42;;
27489;SDS011;14925;51.026;13.752;2023-08-01T07:05:42;3.65;;;2.05;;
27489;SDS011;14925;51.026;13.752;2023-08-01T07:08:07;6.32;;;3.53;;
27489;SDS011;14925;51.026;13.752;2023-08-01T07:10:35;2.78;;;2.13;;
27489;SDS011;14925;51.026;13.752;2023-08-01T07:13:01;2.25;;;1.35;;
27489;SDS011;14925;51.026;13.752;2023-08-01T07:15:29;2.65;;;1.20;;
27489;SDS011;14925;51.026;13.752;2023-08-01T07:17:55;2.30;;;1.10;;
27489;SDS011;14925;51.026;13.752;2023-08-01T07:20:23;1.50;;;1.20;;
27489;SDS011;14925;51.026;13.752;2023-08-01T07:22:49;3.22;;;1.40;;
27489;SDS011;14925;51.026;13.752;2023-08-01T07:25:14;1.48;;;1.08;;
27489;SDS011;14925;51.026;13.752;2023-08-01T07:27:41;2.20;;;1.40;;
27489;SDS011;14925;51.026;13.752;2023-08-01T07:30:06;4.55;;;1.60;;
27489;SDS011;14925;51.026;13.752;2023-08-01T07:32:32;3.55;;;1.17;;
27489;SDS011;14925;51.026;13.752;2023-08-01T07:34:58;3.28;;;1.70;;
27489;SDS011;14925;51.026;13.752;2023-08-01T07:37:26;1.80;;;1.27;;
27489;SDS011;14925;51.026;13.752;2023-08-01T07:39:53;3.08;;;1.27;;
27489;SDS011;14925;51.026;13.752;2023-08-01T07:42:19;3.97;;;1.40;;
27489;SDS011;14925;51.026;13.752;2023-08-01T07:44:44;3.10;;;1.30;;
27489;SDS011;14925;51.026;13.752;2023-08-01T07:47:09;1.55;;;1.40;;
27489;SDS011;14925;51.026;13.752;2023-08-01T07:49:35;1.77;;;1.38;;
27489;SDS011;14925;51.026;13.752;2023-08-01T07:52:00;3.22;;;1.25;;
27489;SDS011;14925;51.026;13.752;2023-08-01T07:54:25;1.58;;;1.15;;
27489;SDS011;14925;51.026;13.752;2023-08-01T07:56:51;1.98;;;1.10;;
27489;SDS011;14925;51.026;13.752;2023-08-01T07:59:16;1.38;;;1.05;;
27489;SDS011;14925;51.026;13.752;2023-08-01T08:01:41;1.75;;;1.25;;
27489;SDS011;14925;51.026;13.752;2023-08-01T08:04:07;1.33;;;1.23;;
27489;SDS011;14925;51.026;13.752;2023-08-01T08:06:32;2.15;;;1.20;;
27489;SDS011;14925;51.026;13.752;2023-08-01T08:08:58;2.03;;;1.20;;
27489;SDS011;14925;51.026;13.752;2023-08-01T08:11:26;1.98;;;1.13;;
27489;SDS011;14925;51.026;13.752;2023-08-01T08:13:52;2.33;;;1.20;;
27489;SDS011;14925;51.026;13.752;2023-08-01T08:16:17;2.03;;;1.17;;
27489;SDS011;14925;51.026;13.752;2023-08-01T08:18:42;1.08;;;0.93;;
27489;SDS011;14925;51.026;13.752;2023-08-01T08:21:08;1.45;;;0.82;;
27489;SDS011;14925;51.026;13.752;2023-08-01T08:23:33;1.60;;;1.10;;
27489;SDS011;14925;51.026;13.752;2023-08-01T08:25:58;2.30;;;0.90;;
27489;SDS011;14925;51.026;13.752;2023-08-01T08:28:28;4.55;;;1.17;;
27489;SDS011;14925;51.026;13.752;2023-08-01T08:30:54;4.53;;;0.90;;
27489;SDS011;14925;51.026;13.752;2023-08-01T08:33:20;2.10;;;0.80;;
27489;SDS011;14925;51.026;13.752;2023-08-01T08:35:46;2.55;;;0.93;;
27489;SDS011;14925;51.026;13.752;2023-08-01T08:38:12;3.55;;;0.82;;
27489;SDS011;14925;51.026;13.752;2023-08-01T08:40:38;0.77;;;0.73;;
27489;SDS011;14925;51.026;13.752;2023-08-01T08:43:06;1.58;;;0.60;;
27489;SDS011;14925;51.026;13.752;2023-08-01T08:45:35;2.95;;;0.70;;
27489;SDS011;14925;51.026;13.752;2023-08-01T08:48:01;2.13;;;0.80;;
27489;SDS011;14925;51.026;13.752;2023-08-01T08:50:28;2.13;;;0.80;;
27489;SDS011;14925;51.026;13.752;2023-08-01T08:52:54;1.02;;;0.65;;
27489;SDS011;14925;51.026;13.752;2023-08-01T08:55:20;0.75;;;0.60;;
27489;SDS011;14925;51.026;13.752;2023-08-01T08:57:48;1.65;;;0.80;;
27489;SDS011;14925;51.026;13.752;2023-08-01T09:00:16;1.15;;;0.90;;
27489;SDS011;14925;51.026;13.752;2023-08-01T09:02:42;1.65;;;0.90;;
27489;SDS011;14925;51.026;13.752;2023-08-01T09:05:07;1.48;;;0.73;;
27489;SDS011;14925;51.026;13.752;2023-08-01T09:07:35;1.15;;;0.70;;
27489;SDS011;14925;51.026;13.752;2023-08-01T09:10:04;2.65;;;1.00;;
27489;SDS011;14925;51.026;13.752;2023-08-01T09:12:33;3.63;;;1.10;;
27489;SDS011;14925;51.026;13.752;2023-08-01T09:14:59;1.02;;;0.80;;
27489;SDS011;14925;51.026;13.752;2023-08-01T09:17:24;1.90;;;0.90;;
27489;SDS011;14925;51.026;13.752;2023-08-01T09:19:54;1.90;;;0.80;;
27489;SDS011;14925;51.026;13.752;2023-08-01T09:22:45;1.60;;;0.73;;
27489;SDS011;14925;51.026;13.752;2023-08-01T09:25:11;1.52;;;1.00;;
27489;SDS011;14925;51.026;13.752;2023-08-01T09:27:37;4.00;;;1.05;;
27489;SDS011;14925;51.026;13.752;2023-08-01T09:30:10;1.35;;;1.00;;
27489;SDS011;14925;51.026;13.752;2023-08-01T09:32:50;2.92;;;0.80;;
27489;SDS011;14925;51.026;13.752;2023-08-01T09:35:17;2.67;;;1.00;;
27489;SDS011;14925;51.026;13.752;2023-08-01T09:37:42;2.42;;;0.95;;
27489;SDS011;14925;51.026;13.752;2023-08-01T09:40:11;1.40;;;0.80;;
27489;SDS011;14925;51.026;13.752;2023-08-01T09:42:38;1.02;;;0.70;;
27489;SDS011;14925;51.026;13.752;2023-08-01T09:45:13;1.63;;;0.70;;
27489;SDS011;14925;51.026;13.752;2023-08-01T09:47:39;1.27;;;0.65;;
27489;SDS011;14925;51.026;13.752;2023-08-01T09:50:05;1.88;;;0.60;;
27489;SDS011;14925;51.026;13.752;2023-08-01T09:52:31;1.05;;;0.77;;
27489;SDS011;14925;51.026;13.752;2023-08-01T09:54:57;1.10;;;0.70;;
27489;SDS011;14925;51.026;13.752;2023-08-01T09:57:23;1.20;;;0.80;;
27489;SDS011;14925;51.026;13.752;2023-08-01T09:59:57;1.27;;;0.65;;
27489;SDS011;14925;51.026;13.752;2023-08-01T10:02:24;1.63;;;0.88;;
27489;SDS011;14925;51.026;13.752;2023-08-01T10:04:53;0.65;;;0.60;;
27489;SDS011;14925;51.026;13.752;2023-08-01T10:07:26;0.90;;;0.60;;
27489;SDS011;14925;51.026;13.752;2023-08-01T10:09:57;1.88;;;0.73;;
27489;SDS011;14925;51.026;13.752;2023-08-01T10:12:23;2.90;;;0.70;;
27489;SDS011;14925;51.026;13.752;2023-08-01T10:14:51;1.00;;;0.80;;
27489;SDS011;14925;51.026;13.752;2023-08-01T10:17:17;1.73;;;0.50;;
27489;SDS011;14925;51.026;13.752;2023-08-01T10:19:43;0.98;;;0.70;;
27489;SDS011;14925;51.026;13.752;2023-08-01T10:22:09;0.60;;;0.60;;
27489;SDS011;14925;51.026;13.752;2023-08-01T10:24:35;1.05;;;0.70;;
27489;SDS011;14925;51.026;13.752;2023-08-01T10:29:39;0.60;;;0.55;;
27489;SDS011;14925;51.026;13.752;2023-08-01T10:32:06;1.20;;;0.80;;
27489;SDS011;14925;51.026;13.752;2023-08-01T10:34:32;0.70;;;0.70;;
27489;SDS011;14925;51.026;13.752;2023-08-01T10:36:58;1.48;;;0.88;;
27489;SDS011;14925;51.026;13.752;2023-08-01T10:39:24;1.85;;;0.70;;
27489;SDS011;14925;51.026;13.752;2023-08-01T10:41:58;1.08;;;0.68;;
27489;SDS011;14925;51.026;13.752;2023-08-01T10:44:24;1.42;;;0.68;;
27489;SDS011;14925;51.026;13.752;2023-08-01T10:49:20;1.10;;;0.60;;
27489;SDS011;14925;51.026;13.752;2023-08-01T10:51:49;1.50;;;0.80;;
27489;SDS011;14925;51.026;13.752;2023-08-01T10:54:21;0.98;;;0.80;;
27489;SDS011;14925;51.026;13.752;2023-08-01T10:56:48;1.27;;;0.90;;
27489;SDS011;14925;51.026;13.752;2023-08-01T10:59:16;2.05;;;0.77;;
27489;SDS011;14925;51.026;13.752;2023-08-01T11:01:47;2.72;;;0.80;;
27489;SDS011;14925;51.026;13.752;2023-08-01T11:04:17;1.00;;;0.70;;
27489;SDS011;14925;51.026;13.752;2023-08-01T11:06:51;1.35;;;0.80;;
27489;SDS011;14925;51.026;13.752;2023-08-01T11:09:18;0.65;;;0.65;;
27489;SDS011;14925;51.026;13.752;2023-08-01T11:11:58;2.58;;;0.80;;
27489;SDS011;14925;51.026;13.752;2023-08-01T11:14:27;1.23;;;0.70;;
27489;SDS011;14925;51.026;13.752;2023-08-01T11:16:56;1.40;;;0.60;;
27489;SDS011;14925;51.026;13.752;2023-08-01T11:19:23;1.55;;;0.70;;
27489;SDS011;14925;51.026;13.752;2023-08-01T11:21:50;1.95;;;0.52;;
27489;SDS011;14925;51.026;13.752;2023-08-01T11:24:19;0.88;;;0.60;;
27489;SDS011;14925;51.026;13.752;2023-08-01T11:26:46;1.52;;;0.70;;
27489;SDS011;14925;51.026;13.752;2023-08-01T11:29:13;2.13;;;0.50;;
27489;SDS011;14925;51.026;13.752;2023-08-01T11:31:39;3.03;;;0.70;;
27489;SDS011;14925;51.026;13.752;2023-08-01T11:34:08;1.08;;;0.70;;
27489;SDS011;14925;51.026;13.752;2023-08-01T11:36:35;0.90;;;0.40;;
27489;SDS011;14925;51.026;13.752;2023-08-01T11:39:00;0.80;;;0.50;;
27489;SDS011;14925;51.026;13.752;2023-08-01T11:41:26;1.33;;;0.50;;
27489;SDS011;14925;51.026;13.752;2023-08-01T11:43:52;1.55;;;0.63;;
27489;SDS011;14925;51.026;13.752;2023-08-01T11:46:19;3.83;;;1.00;;
27489;SDS011;14925;51.026;13.752;2023-08-01T11:48:46;2.40;;;0.98;;
27489;SDS011;14925;51.026;13.752;2023-08-01T11:51:12;2.55;;;1.10;;
27489;SDS011;14925;51.026;13.752;2023-08-01T11:53:37;1.48;;;0.95;;
27489;SDS011;14925;51.026;13.752;2023-08-01T11:56:04;1.95;;;1.25;;
27489;SDS011;14925;51.026;13.752;2023-08-01T11:58:33;2.72;;;1.00;;
27489;SDS011;14925;51.026;13.752;2023-08-01T12:03:29;3.10;;;1.33;;
27489;SDS011;14925;51.026;13.752;2023-08-01T12:06:04;1.23;;;1.10;;
27489;SDS011;14925;51.026;13.752;2023-08-01T12:08:31;1.73;;;1.20;;
27489;SDS011;14925;51.026;13.752;2023-08-01T12:10:57;1.20;;;0.90;;
27489;SDS011;14925;51.026;13.752;2023-08-01T12:13:23;1.80;;;1.27;;
27489;SDS011;14925;51.026;13.752;2023-08-01T12:15:50;1.98;;;1.15;;
27489;SDS011;14925;51.026;13.752;2023-08-01T12:18:25;2.50;;;0.93;;
27489;SDS011;14925;51.026;13.752;2023-08-01T12:20:52;4.85;;;1.13;;
27489;SDS011;14925;51.026;13.752;2023-08-01T12:23:17;2.72;;;1.00;;
27489;SDS011;14925;51.026;13.752;2023-08-01T12:25:43;2.67;;;1.20;;
27489;SDS011;14925;51.026;13.752;2023-08-01T12:28:09;2.75;;;0.95;;
27489;SDS011;14925;51.026;13.752;2023-08-01T12:30:34;3.45;;;1.00;;
27489;SDS011;14925;51.026;13.752;2023-08-01T12:33:00;3.80;;;1.30;;
27489;SDS011;14925;51.026;13.752;2023-08-01T12:35:28;3.47;;;0.98;;
27489;SDS011;14925;51.026;13.752;2023-08-01T12:37:53;3.63;;;1.08;;
27489;SDS011;14925;51.026;13.752;2023-08-01T12:40:19;2.58;;;1.23;;
27489;SDS011;14925;51.026;13.752;2023-08-01T12:42:46;2.13;;;1.10;;
27489;SDS011;14925;51.026;13.752;2023-08-01T12:45:11;4.18;;;1.20;;
27489;SDS011;14925;51.026;13.752;2023-08-01T12:47:37;6.10;;;2.25;;
27489;SDS011;14925;51.026;13.752;2023-08-01T12:50:02;8.32;;;2.35;;
27489;SDS011;14925;51.026;13.752;2023-08-01T12:52:28;5.32;;;2.58;;
27489;SDS011;14925;51.026;13.752;2023-08-01T12:54:54;4.20;;;2.03;;
27489;SDS011;14925;51.026;13.752;2023-08-01T12:57:19;3.38;;;1.80;;
27489;SDS011;14925;51.026;13.752;2023-08-01T12:59:44;4.95;;;1.70;;
27489;SDS011;14925;51.026;13.752;2023-08-01T13:02:10;2.35;;;1.50;;
27489;SDS011;14925;51.026;13.752;2023-08-01T13:04:35;3.08;;;1.77;;
27489;SDS011;14925;51.026;13.752;2023-08-01T13:07:01;4.82;;;2.28;;
27489;SDS011;14925;51.026;13.752;2023-08-01T13:09:26;4.38;;;1.90;;
27489;SDS011;14925;51.026;13.752;2023-08-01T13:11:51;3.55;;;2.10;;
27489;SDS011;14925;51.026;13.752;2023-08-01T13:14:17;4.30;;;2.08;;
27489;SDS011;14925;51.026;13.752;2023-08-01T13:16:42;2.60;;;1.92;;
27489;SDS011;14925;51.026;13.752;2023-08-01T13:19:08;5.88;;;2.10;;
27489;SDS011;14925;51.026;13.752;2023-08-01T13:21:33;3.40;;;2.10;;
27489;SDS011;14925;51.026;13.752;2023-08-01T13:23:59;5.68;;;2.00;;
27489;SDS011;14925;51.026;13.752;2023-08-01T13:26:29;3.55;;;1.70;;
27489;SDS011;14925;51.026;13.752;2023-08-01T13:28:55;2.22;;;1.75;;
27489;SDS011;14925;51.026;13.752;2023-08-01T13:31:20;2.60;;;1.80;;
27489;SDS011;14925;51.026;13.752;2023-08-01T13:33:45;2.92;;;1.80;;
27489;SDS011;14925;51.026;13.752;2023-08-01T13:36:11;2.10;;;1.63;;
27489;SDS011;14925;51.026;13.752;2023-08-01T13:38:37;5.80;;;2.00;;
27489;SDS011;14925;51.026;13.752;2023-08-01T13:41:02;2.33;;;1.80;;
27489;SDS011;14925;51.026;13.752;2023-08-01T13:43:27;2.97;;;1.92;;
27489;SDS011;14925;51.026;13.752;2023-08-01T13:45:53;2.10;;;1.90;;
27489;SDS011;14925;51.026;13.752;2023-08-01T13:48:19;2.85;;;2.10;;
27489;SDS011;14925;51.026;13.752;2023-08-01T13:50:44;3.00;;;2.22;;
27489;SDS011;14925;51.026;13.752;2023-08-01T13:53:09;3.28;;;2.47;;
27489;SDS011;14925;51.026;13.752;2023-08-01T13:55:39;3.45;;;2.25;;
27489;SDS011;14925;51.026;13.752;2023-08-01T13:58:05;5.68;;;2.65;;
27489;SDS011;14925;51.026;13.752;2023-08-01T14:00:31;3.95;;;2.40;;
27489;SDS011;14925;51.026;13.752;2023-08-01T14:02:56;2.80;;;2.60;;
27489;SDS011;14925;51.026;13.752;2023-08-01T14:05:24;3.20;;;2.90;;
27489;SDS011;14925;51.026;13.752;2023-08-01T14:07:51;4.28;;;2.90;;
27489;SDS011;14925;51.026;13.752;2023-08-01T14:10:18;3.15;;;2.85;;
27489;SDS011;14925;51.026;13.752;2023-08-01T14:12:44;3.30;;;3.00;;
27489;SDS011;14925;51.026;13.752;2023-08-01T14:15:10;3.55;;;3.00;;
27489;SDS011;14925;51.026;13.752;2023-08-01T14:17:35;4.60;;;3.03;;
27489;SDS011;14925;51.026;13.752;2023-08-01T14:20:01;4.72;;;3.10;;
27489;SDS011;14925;51.026;13.752;2023-08-01T14:22:29;3.38;;;3.00;;
27489;SDS011;14925;51.026;13.752;2023-08-01T14:24:54;4.03;;;3.35;;
27489;SDS011;14925;51.026;13.752;2023-08-01T14:27:20;4.90;;;3.50;;
27489;SDS011;14925;51.026;13.752;2023-08-01T14:29:45;5.65;;;3.45;;
27489;SDS011;14925;51.026;13.752;2023-08-01T14:32:11;4.90;;;3.38;;
27489;SDS011;14925;51.026;13.752;2023-08-01T14:34:36;4.63;;;3.15;;
27489;SDS011;14925;51.026;13.752;2023-08-01T14:37:02;3.10;;;2.80;;